sensor_id;sensor_type;location;lat;lon;timestamp;P1;durP1;ratioP1;P2;durP2;ratioP2
20725;SDS011;10524;48.132;8.518;2023-07-13T00:01:11;3.30;;;1.80;;
20725;SDS011;10524;48.132;8.518;2023-07-13T00:03:38;5.03;;;1.70;;
20725;SDS011;10524;48.132;8.518;2023-07-13T00:06:06;3.88;;;1.55;;
20725;SDS011;10524;48.132;8.518;2023-07-13T00:08:33;3.15;;;1.70;;
20725;SDS011;10524;48.132;8.518;2023-07-13T00:11:02;5.18;;;1.52;;
20725;SDS011;10524;48.132;8.518;2023-07-13T00:13:28;2.67;;;1.70;;
20725;SDS011;10524;48.132;8.518;2023-07-13T00:15:55;2.55;;;1.58;;
20725;SDS011;10524;48.132;8.518;2023-07-13T00:18:22;2.92;;;1.30;;
20725;SDS011;10524;48.132;8.518;2023-07-13T00:20:48;2.47;;;1.30;;
20725;SDS011;10524;48.132;8.518;2023-07-13T00:23:13;5.88;;;1.50;;
20725;SDS011;10524;48.132;8.518;2023-07-13T00:25:40;4.35;;;1.45;;
20725;SDS011;10524;48.132;8.518;2023-07-13T00:28:05;1.92;;;1.40;;
20725;SDS011;10524;48.132;8.518;2023-07-13T00:30:31;3.78;;;1.25;;
20725;SDS011;10524;48.132;8.518;2023-07-13T00:32:57;2.47;;;1.30;;
20725;SDS011;10524;48.132;8.518;2023-07-13T00:35:23;2.72;;;1.23;;
20725;SDS011;10524;48.132;8.518;2023-07-13T00:37:48;1.85;;;1.30;;
20725;SDS011;10524;48.132;8.518;2023-07-13T00:40:15;2.85;;;1.70;;
20725;SDS011;10524;48.132;8.518;2023-07-13T00:42:41;2.75;;;1.20;;
20725;SDS011;10524;48.132;8.518;2023-07-13T00:46:12;2.22;;;1.40;;
20725;SDS011;10524;48.132;8.518;2023-07-13T00:47:53;2.55;;;1.25;;
20725;SDS011;10524;48.132;8.518;2023-07-13T00:50:22;4.07;;;1.10;;
20725;SDS011;10524;48.132;8.518;2023-07-13T00:52:50;2.28;;;1.52;;
20725;SDS011;10524;48.132;8.518;2023-07-13T00:55:18;3.85;;;1.50;;
20725;SDS011;10524;48.132;8.518;2023-07-13T00:57:46;2.58;;;1.20;;
20725;SDS011;10524;48.132;8.518;2023-07-13T01:00:12;2.65;;;1.30;;
20725;SDS011;10524;48.132;8.518;2023-07-13T01:02:39;2.03;;;1.40;;
20725;SDS011;10524;48.132;8.518;2023-07-13T01:05:14;2.15;;;1.35;;
20725;SDS011;10524;48.132;8.518;2023-07-13T01:07:41;2.30;;;1.45;;
20725;SDS011;10524;48.132;8.518;2023-07-13T01:10:09;3.33;;;1.38;;
20725;SDS011;10524;48.132;8.518;2023-07-13T01:12:36;3.00;;;1.30;;
20725;SDS011;10524;48.132;8.518;2023-07-13T01:15:02;2.28;;;1.30;;
20725;SDS011;10524;48.132;8.518;2023-07-13T01:17:29;3.58;;;1.30;;
20725;SDS011;10524;48.132;8.518;2023-07-13T01:19:58;3.08;;;1.40;;
20725;SDS011;10524;48.132;8.518;2023-07-13T01:22:24;2.97;;;1.55;;
20725;SDS011;10524;48.132;8.518;2023-07-13T01:24:51;2.80;;;1.33;;
20725;SDS011;10524;48.132;8.518;2023-07-13T01:27:22;2.85;;;1.25;;
20725;SDS011;10524;48.132;8.518;2023-07-13T01:29:50;3.03;;;1.50;;
20725;SDS011;10524;48.132;8.518;2023-07-13T01:32:18;3.20;;;1.60;;
20725;SDS011;10524;48.132;8.518;2023-07-13T01:34:49;4.82;;;1.80;;
20725;SDS011;10524;48.132;8.518;2023-07-13T01:37:22;2.55;;;1.80;;
20725;SDS011;10524;48.132;8.518;2023-07-13T01:39:48;4.07;;;1.85;;
20725;SDS011;10524;48.132;8.518;2023-07-13T01:42:14;2.78;;;1.60;;
20725;SDS011;10524;48.132;8.518;2023-07-13T01:44:40;2.85;;;1.58;;
20725;SDS011;10524;48.132;8.518;2023-07-13T01:47:06;2.75;;;1.75;;
20725;SDS011;10524;48.132;8.518;2023-07-13T01:49:31;2.45;;;1.67;;
20725;SDS011;10524;48.132;8.518;2023-07-13T01:51:57;2.90;;;1.80;;
20725;SDS011;10524;48.132;8.518;2023-07-13T01:54:23;2.78;;;1.67;;
20725;SDS011;10524;48.132;8.518;2023-07-13T01:56:48;2.17;;;1.77;;
20725;SDS011;10524;48.132;8.518;2023-07-13T01:59:14;3.78;;;1.80;;
20725;SDS011;10524;48.132;8.518;2023-07-13T02:01:39;3.50;;;1.90;;
20725;SDS011;10524;48.132;8.518;2023-07-13T02:04:05;2.97;;;1.98;;
20725;SDS011;10524;48.132;8.518;2023-07-13T02:06:31;3.33;;;1.95;;
20725;SDS011;10524;48.132;8.518;2023-07-13T02:08:57;2.20;;;1.80;;
20725;SDS011;10524;48.132;8.518;2023-07-13T02:11:23;4.20;;;1.73;;
20725;SDS011;10524;48.132;8.518;2023-07-13T02:13:49;3.00;;;1.73;;
20725;SDS011;10524;48.132;8.518;2023-07-13T02:16:15;3.38;;;1.98;;
20725;SDS011;10524;48.132;8.518;2023-07-13T02:18:41;2.03;;;1.67;;
20725;SDS011;10524;48.132;8.518;2023-07-13T02:21:06;4.38;;;2.00;;
20725;SDS011;10524;48.132;8.518;2023-07-13T02:23:32;4.55;;;1.88;;
20725;SDS011;10524;48.132;8.518;2023-07-13T02:25:59;3.53;;;1.63;;
20725;SDS011;10524;48.132;8.518;2023-07-13T02:28:25;2.67;;;1.67;;
20725;SDS011;10524;48.132;8.518;2023-07-13T02:30:51;2.17;;;1.50;;
20725;SDS011;10524;48.132;8.518;2023-07-13T02:33:17;2.67;;;1.90;;
20725;SDS011;10524;48.132;8.518;2023-07-13T02:35:42;3.78;;;1.60;;
20725;SDS011;10524;48.132;8.518;2023-07-13T02:38:08;2.25;;;1.70;;
20725;SDS011;10524;48.132;8.518;2023-07-13T02:40:34;2.47;;;1.58;;
20725;SDS011;10524;48.132;8.518;2023-07-13T02:43:00;3.80;;;1.60;;
20725;SDS011;10524;48.132;8.518;2023-07-13T02:45:27;3.28;;;1.75;;
20725;SDS011;10524;48.132;8.518;2023-07-13T02:47:53;2.28;;;1.70;;
20725;SDS011;10524;48.132;8.518;2023-07-13T02:50:19;3.13;;;1.70;;
20725;SDS011;10524;48.132;8.518;2023-07-13T02:52:45;3.15;;;1.80;;
20725;SDS011;10524;48.132;8.518;2023-07-13T02:55:10;3.08;;;2.00;;
20725;SDS011;10524;48.132;8.518;2023-07-13T02:57:36;4.68;;;1.90;;
20725;SDS011;10524;48.132;8.518;2023-07-13T03:00:02;3.05;;;1.75;;
20725;SDS011;10524;48.132;8.518;2023-07-13T03:02:32;3.85;;;2.15;;
20725;SDS011;10524;48.132;8.518;2023-07-13T03:04:58;4.05;;;1.55;;
20725;SDS011;10524;48.132;8.518;2023-07-13T03:07:24;4.28;;;1.90;;
20725;SDS011;10524;48.132;8.518;2023-07-13T03:09:54;3.30;;;2.00;;
20725;SDS011;10524;48.132;8.518;2023-07-13T03:12:21;3.13;;;2.10;;
20725;SDS011;10524;48.132;8.518;2023-07-13T03:14:47;3.65;;;2.00;;
20725;SDS011;10524;48.132;8.518;2023-07-13T03:17:12;3.53;;;1.88;;
20725;SDS011;10524;48.132;8.518;2023-07-13T03:19:38;4.07;;;1.90;;
20725;SDS011;10524;48.132;8.518;2023-07-13T03:22:04;2.75;;;2.00;;
20725;SDS011;10524;48.132;8.518;2023-07-13T03:24:30;6.07;;;2.10;;
20725;SDS011;10524;48.132;8.518;2023-07-13T03:26:57;3.40;;;1.85;;
20725;SDS011;10524;48.132;8.518;2023-07-13T03:29:22;3.95;;;2.00;;
20725;SDS011;10524;48.132;8.518;2023-07-13T03:31:48;2.63;;;2.22;;
20725;SDS011;10524;48.132;8.518;2023-07-13T03:34:14;4.60;;;2.40;;
20725;SDS011;10524;48.132;8.518;2023-07-13T03:36:39;3.17;;;2.35;;
20725;SDS011;10524;48.132;8.518;2023-07-13T03:39:05;3.70;;;2.15;;
20725;SDS011;10524;48.132;8.518;2023-07-13T03:41:33;3.58;;;1.80;;
20725;SDS011;10524;48.132;8.518;2023-07-13T03:43:59;3.15;;;1.80;;
20725;SDS011;10524;48.132;8.518;2023-07-13T03:46:24;3.75;;;1.80;;
20725;SDS011;10524;48.132;8.518;2023-07-13T03:48:50;2.97;;;1.70;;
20725;SDS011;10524;48.132;8.518;2023-07-13T03:51:16;4.05;;;2.00;;
20725;SDS011;10524;48.132;8.518;2023-07-13T03:53:42;2.35;;;1.80;;
20725;SDS011;10524;48.132;8.518;2023-07-13T03:56:09;2.97;;;1.98;;
20725;SDS011;10524;48.132;8.518;2023-07-13T03:58:36;4.07;;;1.80;;
20725;SDS011;10524;48.132;8.518;2023-07-13T04:01:04;3.88;;;2.05;;
20725;SDS011;10524;48.132;8.518;2023-07-13T04:03:32;3.08;;;1.85;;
20725;SDS011;10524;48.132;8.518;2023-07-13T04:05:58;2.50;;;1.58;;
20725;SDS011;10524;48.132;8.518;2023-07-13T04:08:29;2.75;;;1.70;;
20725;SDS011;10524;48.132;8.518;2023-07-13T04:10:56;3.65;;;1.90;;
20725;SDS011;10524;48.132;8.518;2023-07-13T04:13:22;3.72;;;1.85;;
20725;SDS011;10524;48.132;8.518;2023-07-13T04:15:49;5.40;;;1.90;;
20725;SDS011;10524;48.132;8.518;2023-07-13T04:18:15;3.17;;;1.58;;
20725;SDS011;10524;48.132;8.518;2023-07-13T04:20:41;3.95;;;2.17;;
20725;SDS011;10524;48.132;8.518;2023-07-13T04:23:07;2.25;;;1.58;;
20725;SDS011;10524;48.132;8.518;2023-07-13T04:25:32;2.20;;;1.52;;
20725;SDS011;10524;48.132;8.518;2023-07-13T04:27:58;3.03;;;1.80;;
20725;SDS011;10524;48.132;8.518;2023-07-13T04:30:24;2.03;;;1.45;;
20725;SDS011;10524;48.132;8.518;2023-07-13T04:32:50;4.20;;;1.83;;
20725;SDS011;10524;48.132;8.518;2023-07-13T04:35:17;3.63;;;1.80;;
20725;SDS011;10524;48.132;8.518;2023-07-13T04:37:45;3.40;;;1.75;;
20725;SDS011;10524;48.132;8.518;2023-07-13T04:40:15;2.60;;;1.98;;
20725;SDS011;10524;48.132;8.518;2023-07-13T04:42:44;4.32;;;1.50;;
20725;SDS011;10524;48.132;8.518;2023-07-13T04:45:10;4.32;;;1.90;;
20725;SDS011;10524;48.132;8.518;2023-07-13T04:47:36;4.45;;;2.03;;
20725;SDS011;10524;48.132;8.518;2023-07-13T04:50:02;5.15;;;1.70;;
20725;SDS011;10524;48.132;8.518;2023-07-13T04:52:28;4.28;;;1.70;;
20725;SDS011;10524;48.132;8.518;2023-07-13T04:54:53;3.85;;;1.75;;
20725;SDS011;10524;48.132;8.518;2023-07-13T04:57:19;3.78;;;1.80;;
20725;SDS011;10524;48.132;8.518;2023-07-13T04:59:45;2.85;;;1.85;;
20725;SDS011;10524;48.132;8.518;2023-07-13T05:02:10;2.10;;;1.67;;
20725;SDS011;10524;48.132;8.518;2023-07-13T05:04:36;4.43;;;1.88;;
20725;SDS011;10524;48.132;8.518;2023-07-13T05:07:02;4.93;;;1.95;;
20725;SDS011;10524;48.132;8.518;2023-07-13T05:09:27;3.63;;;1.77;;
20725;SDS011;10524;48.132;8.518;2023-07-13T05:11:53;3.03;;;1.60;;
20725;SDS011;10524;48.132;8.518;2023-07-13T05:14:18;5.10;;;1.70;;
20725;SDS011;10524;48.132;8.518;2023-07-13T05:16:44;3.67;;;2.00;;
20725;SDS011;10524;48.132;8.518;2023-07-13T05:19:12;3.08;;;1.40;;
20725;SDS011;10524;48.132;8.518;2023-07-13T05:21:38;1.98;;;1.58;;
20725;SDS011;10524;48.132;8.518;2023-07-13T05:24:04;2.70;;;1.50;;
20725;SDS011;10524;48.132;8.518;2023-07-13T05:26:30;2.33;;;1.50;;
20725;SDS011;10524;48.132;8.518;2023-07-13T05:28:55;2.65;;;1.65;;
20725;SDS011;10524;48.132;8.518;2023-07-13T05:31:21;5.88;;;1.60;;
20725;SDS011;10524;48.132;8.518;2023-07-13T05:33:46;3.22;;;1.55;;
20725;SDS011;10524;48.132;8.518;2023-07-13T05:36:12;4.10;;;1.60;;
20725;SDS011;10524;48.132;8.518;2023-07-13T05:38:38;4.00;;;1.60;;
20725;SDS011;10524;48.132;8.518;2023-07-13T05:41:03;5.10;;;1.60;;
20725;SDS011;10524;48.132;8.518;2023-07-13T05:43:29;4.13;;;1.60;;
20725;SDS011;10524;48.132;8.518;2023-07-13T05:45:55;4.28;;;1.90;;
20725;SDS011;10524;48.132;8.518;2023-07-13T05:48:22;6.13;;;1.88;;
20725;SDS011;10524;48.132;8.518;2023-07-13T05:50:48;4.97;;;1.42;;
20725;SDS011;10524;48.132;8.518;2023-07-13T05:53:14;4.07;;;1.80;;
20725;SDS011;10524;48.132;8.518;2023-07-13T05:55:41;3.00;;;1.20;;
20725;SDS011;10524;48.132;8.518;2023-07-13T05:58:08;2.72;;;1.30;;
20725;SDS011;10524;48.132;8.518;2023-07-13T06:00:34;2.40;;;1.30;;
20725;SDS011;10524;48.132;8.518;2023-07-13T06:02:59;5.13;;;1.50;;
20725;SDS011;10524;48.132;8.518;2023-07-13T06:05:25;2.42;;;1.38;;
20725;SDS011;10524;48.132;8.518;2023-07-13T06:07:52;3.03;;;1.42;;
20725;SDS011;10524;48.132;8.518;2023-07-13T06:10:17;4.18;;;1.58;;
20725;SDS011;10524;48.132;8.518;2023-07-13T06:12:43;4.38;;;1.50;;
20725;SDS011;10524;48.132;8.518;2023-07-13T06:15:09;2.28;;;1.00;;
20725;SDS011;10524;48.132;8.518;2023-07-13T06:17:35;4.18;;;1.30;;
20725;SDS011;10524;48.132;8.518;2023-07-13T06:20:01;3.30;;;1.10;;
20725;SDS011;10524;48.132;8.518;2023-07-13T06:22:27;2.17;;;1.00;;
20725;SDS011;10524;48.132;8.518;2023-07-13T06:24:52;2.95;;;1.25;;
20725;SDS011;10524;48.132;8.518;2023-07-13T06:27:18;3.60;;;2.78;;
20725;SDS011;10524;48.132;8.518;2023-07-13T06:29:44;3.55;;;1.55;;
20725;SDS011;10524;48.132;8.518;2023-07-13T06:32:10;5.45;;;1.25;;
20725;SDS011;10524;48.132;8.518;2023-07-13T06:34:36;2.05;;;1.20;;
20725;SDS011;10524;48.132;8.518;2023-07-13T06:37:01;3.33;;;1.20;;
20725;SDS011;10524;48.132;8.518;2023-07-13T06:39:27;3.38;;;1.10;;
20725;SDS011;10524;48.132;8.518;2023-07-13T06:41:53;3.28;;;1.33;;
20725;SDS011;10524;48.132;8.518;2023-07-13T06:44:18;2.25;;;1.02;;
20725;SDS011;10524;48.132;8.518;2023-07-13T06:46:44;3.65;;;1.10;;
20725;SDS011;10524;48.132;8.518;2023-07-13T06:49:10;5.70;;;1.20;;
20725;SDS011;10524;48.132;8.518;2023-07-13T06:51:35;3.72;;;1.17;;
20725;SDS011;10524;48.132;8.518;2023-07-13T06:54:01;4.75;;;1.10;;
20725;SDS011;10524;48.132;8.518;2023-07-13T06:56:27;3.10;;;1.10;;
20725;SDS011;10524;48.132;8.518;2023-07-13T06:58:53;4.05;;;1.10;;
20725;SDS011;10524;48.132;8.518;2023-07-13T07:01:18;3.58;;;0.90;;
20725;SDS011;10524;48.132;8.518;2023-07-13T07:03:44;3.88;;;1.05;;
20725;SDS011;10524;48.132;8.518;2023-07-13T07:06:15;3.97;;;1.20;;
20725;SDS011;10524;48.132;8.518;2023-07-13T07:08:42;3.58;;;1.10;;
20725;SDS011;10524;48.132;8.518;2023-07-13T07:11:13;3.47;;;1.10;;
20725;SDS011;10524;48.132;8.518;2023-07-13T07:13:41;3.05;;;0.90;;
20725;SDS011;10524;48.132;8.518;2023-07-13T07:16:07;1.58;;;1.05;;
20725;SDS011;10524;48.132;8.518;2023-07-13T07:18:33;2.72;;;1.10;;
20725;SDS011;10524;48.132;8.518;2023-07-13T07:20:59;2.55;;;1.02;;
20725;SDS011;10524;48.132;8.518;2023-07-13T07:23:25;7.07;;;1.13;;
20725;SDS011;10524;48.132;8.518;2023-07-13T07:25:51;4.40;;;1.00;;
20725;SDS011;10524;48.132;8.518;2023-07-13T07:28:17;5.07;;;1.20;;
20725;SDS011;10524;48.132;8.518;2023-07-13T07:30:45;4.50;;;1.20;;
20725;SDS011;10524;48.132;8.518;2023-07-13T07:33:11;2.45;;;1.02;;
20725;SDS011;10524;48.132;8.518;2023-07-13T07:35:37;4.63;;;1.00;;
20725;SDS011;10524;48.132;8.518;2023-07-13T07:38:03;4.13;;;1.00;;
20725;SDS011;10524;48.132;8.518;2023-07-13T07:40:29;5.80;;;1.63;;
20725;SDS011;10524;48.132;8.518;2023-07-13T07:42:54;3.63;;;1.10;;
20725;SDS011;10524;48.132;8.518;2023-07-13T07:45:21;4.72;;;0.90;;
20725;SDS011;10524;48.132;8.518;2023-07-13T07:47:46;4.28;;;1.00;;
20725;SDS011;10524;48.132;8.518;2023-07-13T07:50:12;2.45;;;0.90;;
20725;SDS011;10524;48.132;8.518;2023-07-13T07:52:38;3.42;;;1.08;;
20725;SDS011;10524;48.132;8.518;2023-07-13T07:55:05;4.07;;;1.02;;
20725;SDS011;10524;48.132;8.518;2023-07-13T07:57:32;3.33;;;1.20;;
20725;SDS011;10524;48.132;8.518;2023-07-13T07:59:57;5.28;;;1.05;;
20725;SDS011;10524;48.132;8.518;2023-07-13T08:02:24;5.25;;;1.05;;
20725;SDS011;10524;48.132;8.518;2023-07-13T08:04:50;2.05;;;1.10;;
20725;SDS011;10524;48.132;8.518;2023-07-13T08:07:16;4.88;;;1.10;;
20725;SDS011;10524;48.132;8.518;2023-07-13T08:09:41;3.10;;;1.00;;
20725;SDS011;10524;48.132;8.518;2023-07-13T08:12:07;3.28;;;1.35;;
20725;SDS011;10524;48.132;8.518;2023-07-13T08:14:33;4.03;;;1.08;;
20725;SDS011;10524;48.132;8.518;2023-07-13T08:16:58;4.50;;;1.38;;
20725;SDS011;10524;48.132;8.518;2023-07-13T08:19:24;5.57;;;1.20;;
20725;SDS011;10524;48.132;8.518;2023-07-13T08:21:50;4.18;;;1.30;;
20725;SDS011;10524;48.132;8.518;2023-07-13T08:24:15;1.40;;;1.00;;
20725;SDS011;10524;48.132;8.518;2023-07-13T08:26:43;2.80;;;1.00;;
20725;SDS011;10524;48.132;8.518;2023-07-13T08:29:10;2.10;;;0.90;;
20725;SDS011;10524;48.132;8.518;2023-07-13T08:31:36;4.40;;;1.30;;
20725;SDS011;10524;48.132;8.518;2023-07-13T08:34:01;3.15;;;1.05;;
20725;SDS011;10524;48.132;8.518;2023-07-13T08:36:27;2.15;;;0.85;;
20725;SDS011;10524;48.132;8.518;2023-07-13T08:38:54;3.45;;;0.95;;
20725;SDS011;10524;48.132;8.518;2023-07-13T08:41:20;2.63;;;0.98;;
20725;SDS011;10524;48.132;8.518;2023-07-13T08:43:50;2.55;;;1.23;;
20725;SDS011;10524;48.132;8.518;2023-07-13T08:46:30;3.28;;;1.10;;
20725;SDS011;10524;48.132;8.518;2023-07-13T08:49:05;3.65;;;0.98;;
20725;SDS011;10524;48.132;8.518;2023-07-13T08:51:51;4.00;;;1.20;;
20725;SDS011;10524;48.132;8.518;2023-07-13T08:54:23;3.65;;;0.90;;
20725;SDS011;10524;48.132;8.518;2023-07-13T08:56:56;2.03;;;1.00;;
20725;SDS011;10524;48.132;8.518;2023-07-13T08:59:24;4.18;;;0.80;;
20725;SDS011;10524;48.132;8.518;2023-07-13T09:04:40;2.80;;;1.10;;
20725;SDS011;10524;48.132;8.518;2023-07-13T09:09:59;4.45;;;0.93;;
20725;SDS011;10524;48.132;8.518;2023-07-13T09:15:19;5.47;;;1.10;;
20725;SDS011;10524;48.132;8.518;2023-07-13T09:17:59;4.10;;;1.13;;
20725;SDS011;10524;48.132;8.518;2023-07-13T09:20:46;2.72;;;0.90;;
20725;SDS011;10524;48.132;8.518;2023-07-13T09:23:16;3.38;;;1.10;;
20725;SDS011;10524;48.132;8.518;2023-07-13T09:25:45;4.45;;;1.20;;
20725;SDS011;10524;48.132;8.518;2023-07-13T09:31:30;3.13;;;1.20;;
20725;SDS011;10524;48.132;8.518;2023-07-13T09:34:01;5.47;;;1.27;;
20725;SDS011;10524;48.132;8.518;2023-07-13T09:36:28;5.15;;;1.35;;
20725;SDS011;10524;48.132;8.518;2023-07-13T09:44:30;2.22;;;0.90;;
20725;SDS011;10524;48.132;8.518;2023-07-13T09:46:59;4.22;;;1.10;;
20725;SDS011;10524;48.132;8.518;2023-07-13T09:49:31;2.60;;;1.00;;
20725;SDS011;10524;48.132;8.518;2023-07-13T09:52:01;5.90;;;1.10;;
20725;SDS011;10524;48.132;8.518;2023-07-13T09:54:29;4.47;;;1.10;;
20725;SDS011;10524;48.132;8.518;2023-07-13T09:56:58;4.45;;;1.20;;
20725;SDS011;10524;48.132;8.518;2023-07-13T09:59:35;4.05;;;1.20;;
20725;SDS011;10524;48.132;8.518;2023-07-13T10:04:58;4.28;;;1.17;;
20725;SDS011;10524;48.132;8.518;2023-07-13T10:07:26;2.45;;;1.00;;
20725;SDS011;10524;48.132;8.518;2023-07-13T10:09:59;3.88;;;0.90;;
20725;SDS011;10524;48.132;8.518;2023-07-13T10:12:28;5.05;;;0.93;;
20725;SDS011;10524;48.132;8.518;2023-07-13T10:14:56;3.47;;;1.00;;
20725;SDS011;10524;48.132;8.518;2023-07-13T10:17:29;2.80;;;0.80;;
20725;SDS011;10524;48.132;8.518;2023-07-13T10:20:01;3.97;;;1.00;;
20725;SDS011;10524;48.132;8.518;2023-07-13T10:25:16;3.70;;;1.10;;
20725;SDS011;10524;48.132;8.518;2023-07-13T10:27:43;5.32;;;1.10;;
20725;SDS011;10524;48.132;8.518;2023-07-13T10:30:15;1.98;;;0.90;;
20725;SDS011;10524;48.132;8.518;2023-07-13T10:32:47;2.00;;;1.00;;
20725;SDS011;10524;48.132;8.518;2023-07-13T10:35:15;3.05;;;1.05;;
20725;SDS011;10524;48.132;8.518;2023-07-13T10:40:25;2.50;;;1.00;;
20725;SDS011;10524;48.132;8.518;2023-07-13T10:43:19;4.18;;;0.90;;
20725;SDS011;10524;48.132;8.518;2023-07-13T10:45:52;2.15;;;1.00;;
20725;SDS011;10524;48.132;8.518;2023-07-13T10:48:19;2.35;;;0.90;;
20725;SDS011;10524;48.132;8.518;2023-07-13T10:50:48;2.35;;;1.00;;
20725;SDS011;10524;48.132;8.518;2023-07-13T10:53:21;5.80;;;1.00;;
20725;SDS011;10524;48.132;8.518;2023-07-13T10:55:59;3.25;;;0.95;;
20725;SDS011;10524;48.132;8.518;2023-07-13T10:58:34;2.03;;;1.13;;
20725;SDS011;10524;48.132;8.518;2023-07-13T11:03:54;2.28;;;0.90;;
20725;SDS011;10524;48.132;8.518;2023-07-13T11:08:55;2.60;;;1.17;;
20725;SDS011;10524;48.132;8.518;2023-07-13T11:18:48;2.40;;;0.90;;
20725;SDS011;10524;48.132;8.518;2023-07-13T11:21:33;2.45;;;0.88;;
20725;SDS011;10524;48.132;8.518;2023-07-13T11:24:16;2.10;;;0.95;;
20725;SDS011;10524;48.132;8.518;2023-07-13T11:26:43;1.50;;;0.85;;
20725;SDS011;10524;48.132;8.518;2023-07-13T11:31:59;3.88;;;0.77;;
20725;SDS011;10524;48.132;8.518;2023-07-13T11:34:42;1.55;;;0.90;;
20725;SDS011;10524;48.132;8.518;2023-07-13T11:37:11;1.48;;;0.80;;
20725;SDS011;10524;48.132;8.518;2023-07-13T11:39:40;1.73;;;0.90;;
20725;SDS011;10524;48.132;8.518;2023-07-13T11:42:09;2.30;;;0.90;;
20725;SDS011;10524;48.132;8.518;2023-07-13T11:44:41;3.28;;;1.00;;
20725;SDS011;10524;48.132;8.518;2023-07-13T11:47:14;3.10;;;1.80;;
20725;SDS011;10524;48.132;8.518;2023-07-13T11:49:48;1.63;;;0.90;;
20725;SDS011;10524;48.132;8.518;2023-07-13T11:52:18;2.42;;;0.98;;
20725;SDS011;10524;48.132;8.518;2023-07-13T11:54:53;1.98;;;0.98;;
20725;SDS011;10524;48.132;8.518;2023-07-13T12:00:00;1.77;;;0.80;;
20725;SDS011;10524;48.132;8.518;2023-07-13T12:02:38;2.28;;;0.95;;
20725;SDS011;10524;48.132;8.518;2023-07-13T12:05:09;2.55;;;0.80;;
20725;SDS011;10524;48.132;8.518;2023-07-13T12:07:38;2.28;;;1.00;;
20725;SDS011;10524;48.132;8.518;2023-07-13T12:10:23;1.20;;;0.90;;
20725;SDS011;10524;48.132;8.518;2023-07-13T12:13:11;2.97;;;1.00;;
20725;SDS011;10524;48.132;8.518;2023-07-13T12:15:45;3.03;;;1.00;;
20725;SDS011;10524;48.132;8.518;2023-07-13T12:18:14;1.67;;;0.82;;
20725;SDS011;10524;48.132;8.518;2023-07-13T12:20:44;1.63;;;0.80;;
20725;SDS011;10524;48.132;8.518;2023-07-13T12:23:19;2.80;;;1.00;;
20725;SDS011;10524;48.132;8.518;2023-07-13T12:25:49;1.92;;;0.75;;
20725;SDS011;10524;48.132;8.518;2023-07-13T12:28:21;1.02;;;0.80;;
20725;SDS011;10524;48.132;8.518;2023-07-13T12:30:59;4.68;;;1.00;;
20725;SDS011;10524;48.132;8.518;2023-07-13T12:33:32;2.53;;;0.95;;
20725;SDS011;10524;48.132;8.518;2023-07-13T12:36:02;2.60;;;0.88;;
20725;SDS011;10524;48.132;8.518;2023-07-13T12:38:31;2.47;;;0.90;;
20725;SDS011;10524;48.132;8.518;2023-07-13T12:40:57;2.83;;;0.90;;
20725;SDS011;10524;48.132;8.518;2023-07-13T12:43:23;1.83;;;1.13;;
20725;SDS011;10524;48.132;8.518;2023-07-13T12:46:04;4.00;;;1.00;;
20725;SDS011;10524;48.132;8.518;2023-07-13T12:48:41;1.70;;;1.00;;
20725;SDS011;10524;48.132;8.518;2023-07-13T12:51:10;2.13;;;1.00;;
20725;SDS011;10524;48.132;8.518;2023-07-13T12:53:47;3.28;;;1.17;;
20725;SDS011;10524;48.132;8.518;2023-07-13T12:56:18;3.28;;;1.05;;
20725;SDS011;10524;48.132;8.518;2023-07-13T12:58:47;2.13;;;0.82;;
20725;SDS011;10524;48.132;8.518;2023-07-13T13:01:19;4.00;;;1.45;;
20725;SDS011;10524;48.132;8.518;2023-07-13T13:03:51;2.50;;;1.02;;
20725;SDS011;10524;48.132;8.518;2023-07-13T13:08:48;3.35;;;0.90;;
20725;SDS011;10524;48.132;8.518;2023-07-13T13:11:15;3.17;;;1.50;;
20725;SDS011;10524;48.132;8.518;2023-07-13T13:13:42;3.05;;;0.85;;
20725;SDS011;10524;48.132;8.518;2023-07-13T13:16:12;2.05;;;1.00;;
20725;SDS011;10524;48.132;8.518;2023-07-13T13:18:39;4.18;;;1.10;;
20725;SDS011;10524;48.132;8.518;2023-07-13T13:21:05;4.43;;;1.00;;
20725;SDS011;10524;48.132;8.518;2023-07-13T13:23:31;4.50;;;0.90;;
20725;SDS011;10524;48.132;8.518;2023-07-13T13:25:56;8.18;;;1.17;;
20725;SDS011;10524;48.132;8.518;2023-07-13T13:28:23;1.90;;;0.80;;
20725;SDS011;10524;48.132;8.518;2023-07-13T13:30:49;2.97;;;0.80;;
20725;SDS011;10524;48.132;8.518;2023-07-13T13:33:16;3.10;;;0.80;;
20725;SDS011;10524;48.132;8.518;2023-07-13T13:35:44;2.45;;;1.00;;
20725;SDS011;10524;48.132;8.518;2023-07-13T13:38:10;4.30;;;1.08;;
20725;SDS011;10524;48.132;8.518;2023-07-13T13:40:37;4.00;;;0.90;;
20725;SDS011;10524;48.132;8.518;2023-07-13T13:43:04;7.13;;;1.05;;
20725;SDS011;10524;48.132;8.518;2023-07-13T13:45:38;2.60;;;0.90;;
20725;SDS011;10524;48.132;8.518;2023-07-13T13:48:04;2.33;;;0.80;;
20725;SDS011;10524;48.132;8.518;2023-07-13T13:50:30;3.90;;;1.00;;
20725;SDS011;10524;48.132;8.518;2023-07-13T13:52:56;1.85;;;0.80;;
20725;SDS011;10524;48.132;8.518;2023-07-13T13:55:21;2.05;;;1.00;;
20725;SDS011;10524;48.132;8.518;2023-07-13T13:57:49;3.33;;;1.00;;
20725;SDS011;10524;48.132;8.518;2023-07-13T14:00:16;4.32;;;1.00;;
20725;SDS011;10524;48.132;8.518;2023-07-13T14:02:46;3.38;;;1.20;;
20725;SDS011;10524;48.132;8.518;2023-07-13T14:05:13;2.38;;;1.08;;
20725;SDS011;10524;48.132;8.518;2023-07-13T14:07:41;5.00;;;1.10;;
20725;SDS011;10524;48.132;8.518;2023-07-13T14:10:11;2.80;;;0.93;;
20725;SDS011;10524;48.132;8.518;2023-07-13T14:12:40;4.10;;;1.15;;
20725;SDS011;10524;48.132;8.518;2023-07-13T14:17:49;3.70;;;1.10;;
20725;SDS011;10524;48.132;8.518;2023-07-13T14:20:15;2.38;;;1.00;;
20725;SDS011;10524;48.132;8.518;2023-07-13T14:22:41;3.35;;;0.95;;
20725;SDS011;10524;48.132;8.518;2023-07-13T14:25:12;3.10;;;1.10;;
20725;SDS011;10524;48.132;8.518;2023-07-13T14:27:40;3.42;;;1.02;;
20725;SDS011;10524;48.132;8.518;2023-07-13T14:30:16;3.33;;;1.10;;
20725;SDS011;10524;48.132;8.518;2023-07-13T14:32:46;3.05;;;1.17;;
20725;SDS011;10524;48.132;8.518;2023-07-13T14:35:14;2.38;;;1.02;;
20725;SDS011;10524;48.132;8.518;2023-07-13T14:37:41;3.80;;;1.48;;
20725;SDS011;10524;48.132;8.518;2023-07-13T14:40:12;2.97;;;1.15;;
20725;SDS011;10524;48.132;8.518;2023-07-13T14:42:41;3.20;;;1.10;;
20725;SDS011;10524;48.132;8.518;2023-07-13T14:45:14;4.70;;;1.10;;
20725;SDS011;10524;48.132;8.518;2023-07-13T14:47:42;3.55;;;1.23;;
20725;SDS011;10524;48.132;8.518;2023-07-13T14:50:15;5.85;;;1.17;;
20725;SDS011;10524;48.132;8.518;2023-07-13T14:52:44;2.00;;;0.98;;
20725;SDS011;10524;48.132;8.518;2023-07-13T14:55:14;3.08;;;1.27;;
20725;SDS011;10524;48.132;8.518;2023-07-13T14:57:43;3.78;;;1.00;;
20725;SDS011;10524;48.132;8.518;2023-07-13T15:00:14;3.30;;;1.15;;
20725;SDS011;10524;48.132;8.518;2023-07-13T15:02:41;2.42;;;1.05;;
20725;SDS011;10524;48.132;8.518;2023-07-13T15:05:30;3.33;;;1.10;;
20725;SDS011;10524;48.132;8.518;2023-07-13T15:08:01;4.05;;;1.17;;
20725;SDS011;10524;48.132;8.518;2023-07-13T15:10:32;6.27;;;1.10;;
20725;SDS011;10524;48.132;8.518;2023-07-13T15:12:59;4.15;;;1.00;;
20725;SDS011;10524;48.132;8.518;2023-07-13T15:15:30;3.90;;;1.05;;
20725;SDS011;10524;48.132;8.518;2023-07-13T15:18:09;5.30;;;1.27;;
20725;SDS011;10524;48.132;8.518;2023-07-13T15:20:36;3.38;;;1.17;;
20725;SDS011;10524;48.132;8.518;2023-07-13T15:23:02;3.83;;;1.10;;
20725;SDS011;10524;48.132;8.518;2023-07-13T15:25:29;4.05;;;1.17;;
20725;SDS011;10524;48.132;8.518;2023-07-13T15:27:56;4.30;;;1.17;;
20725;SDS011;10524;48.132;8.518;2023-07-13T15:30:23;2.97;;;1.00;;
20725;SDS011;10524;48.132;8.518;2023-07-13T15:32:52;2.90;;;1.20;;
20725;SDS011;10524;48.132;8.518;2023-07-13T15:35:18;2.70;;;1.00;;
20725;SDS011;10524;48.132;8.518;2023-07-13T15:37:50;2.05;;;1.10;;
20725;SDS011;10524;48.132;8.518;2023-07-13T15:40:16;5.45;;;1.20;;
20725;SDS011;10524;48.132;8.518;2023-07-13T15:42:42;3.38;;;1.17;;